sensor_id;sensor_type;location;lat;lon;timestamp;P1;durP1;ratioP1;P2;durP2;ratioP2
35312;SDS011;21425;50.454;30.466;2023-10-31T00:00:35;19.60;;;9.10;;
35312;SDS011;21425;50.454;30.466;2023-10-31T00:03:01;25.23;;;9.98;;
35312;SDS011;21425;50.454;30.466;2023-10-31T00:05:27;20.15;;;9.43;;
35312;SDS011;21425;50.454;30.466;2023-10-31T00:07:52;19.27;;;9.10;;
35312;SDS011;21425;50.454;30.466;2023-10-31T00:10:18;17.05;;;8.68;;
35312;SDS011;21425;50.454;30.466;2023-10-31T00:12:44;25.23;;;9.05;;
35312;SDS011;21425;50.454;30.466;2023-10-31T00:15:10;17.40;;;8.30;;
35312;SDS011;21425;50.454;30.466;2023-10-31T00:17:35;17.45;;;8.35;;
35312;SDS011;21425;50.454;30.466;2023-10-31T00:20:01;22.70;;;9.10;;
35312;SDS011;21425;50.454;30.466;2023-10-31T00:22:28;21.63;;;9.15;;
35312;SDS011;21425;50.454;30.466;2023-10-31T00:24:53;19.92;;;8.95;;
35312;SDS011;21425;50.454;30.466;2023-10-31T00:27:19;20.83;;;8.48;;
35312;SDS011;21425;50.454;30.466;2023-10-31T00:29:45;24.35;;;10.25;;
35312;SDS011;21425;50.454;30.466;2023-10-31T00:32:11;20.50;;;8.65;;
35312;SDS011;21425;50.454;30.466;2023-10-31T00:34:36;28.05;;;9.43;;
35312;SDS011;21425;50.454;30.466;2023-10-31T00:37:02;23.63;;;9.35;;
35312;SDS011;21425;50.454;30.466;2023-10-31T00:39:28;22.25;;;8.48;;
35312;SDS011;21425;50.454;30.466;2023-10-31T00:41:54;27.42;;;9.18;;
35312;SDS011;21425;50.454;30.466;2023-10-31T00:44:19;18.52;;;8.50;;
35312;SDS011;21425;50.454;30.466;2023-10-31T00:46:45;23.08;;;8.75;;
35312;SDS011;21425;50.454;30.466;2023-10-31T00:49:11;21.15;;;9.07;;
35312;SDS011;21425;50.454;30.466;2023-10-31T00:51:37;26.10;;;9.77;;
35312;SDS011;21425;50.454;30.466;2023-10-31T00:54:03;18.92;;;8.85;;
35312;SDS011;21425;50.454;30.466;2023-10-31T00:56:29;23.02;;;9.43;;
35312;SDS011;21425;50.454;30.466;2023-10-31T00:58:54;28.00;;;9.82;;
35312;SDS011;21425;50.454;30.466;2023-10-31T01:01:20;25.63;;;10.52;;
35312;SDS011;21425;50.454;30.466;2023-10-31T01:03:46;20.90;;;10.02;;
35312;SDS011;21425;50.454;30.466;2023-10-31T01:06:12;22.08;;;10.10;;
35312;SDS011;21425;50.454;30.466;2023-10-31T01:08:38;21.02;;;9.40;;
35312;SDS011;21425;50.454;30.466;2023-10-31T01:11:03;23.80;;;10.18;;
35312;SDS011;21425;50.454;30.466;2023-10-31T01:13:29;22.08;;;9.05;;
35312;SDS011;21425;50.454;30.466;2023-10-31T01:15:55;22.33;;;10.07;;
35312;SDS011;21425;50.454;30.466;2023-10-31T01:18:20;19.17;;;9.10;;
35312;SDS011;21425;50.454;30.466;2023-10-31T01:20:46;29.67;;;10.93;;
35312;SDS011;21425;50.454;30.466;2023-10-31T01:23:12;24.67;;;10.52;;
35312;SDS011;21425;50.454;30.466;2023-10-31T01:25:38;19.90;;;9.77;;
35312;SDS011;21425;50.454;30.466;2023-10-31T01:28:04;25.10;;;10.32;;
35312;SDS011;21425;50.454;30.466;2023-10-31T01:30:30;27.45;;;10.55;;
35312;SDS011;21425;50.454;30.466;2023-10-31T01:32:56;21.80;;;10.07;;
35312;SDS011;21425;50.454;30.466;2023-10-31T01:35:21;22.42;;;10.15;;
35312;SDS011;21425;50.454;30.466;2023-10-31T01:37:47;27.48;;;10.68;;
35312;SDS011;21425;50.454;30.466;2023-10-31T01:40:13;22.70;;;10.10;;
35312;SDS011;21425;50.454;30.466;2023-10-31T01:42:39;18.52;;;9.05;;
35312;SDS011;21425;50.454;30.466;2023-10-31T01:45:05;23.40;;;11.43;;
35312;SDS011;21425;50.454;30.466;2023-10-31T01:47:31;29.33;;;10.75;;
35312;SDS011;21425;50.454;30.466;2023-10-31T01:49:58;24.80;;;10.85;;
35312;SDS011;21425;50.454;30.466;2023-10-31T01:52:24;23.58;;;11.60;;
35312;SDS011;21425;50.454;30.466;2023-10-31T01:54:50;30.13;;;11.35;;
35312;SDS011;21425;50.454;30.466;2023-10-31T01:57:15;30.33;;;11.32;;
35312;SDS011;21425;50.454;30.466;2023-10-31T01:59:41;23.48;;;10.77;;
35312;SDS011;21425;50.454;30.466;2023-10-31T02:02:07;26.38;;;12.27;;
35312;SDS011;21425;50.454;30.466;2023-10-31T02:04:34;27.98;;;12.25;;
35312;SDS011;21425;50.454;30.466;2023-10-31T02:06:59;30.08;;;12.40;;
35312;SDS011;21425;50.454;30.466;2023-10-31T02:09:25;24.95;;;12.65;;
35312;SDS011;21425;50.454;30.466;2023-10-31T02:11:52;27.23;;;12.25;;
35312;SDS011;21425;50.454;30.466;2023-10-31T02:14:18;29.60;;;13.70;;
35312;SDS011;21425;50.454;30.466;2023-10-31T02:16:44;31.38;;;13.15;;
35312;SDS011;21425;50.454;30.466;2023-10-31T02:19:09;28.50;;;12.13;;
35312;SDS011;21425;50.454;30.466;2023-10-31T02:21:38;22.60;;;11.27;;
35312;SDS011;21425;50.454;30.466;2023-10-31T02:24:05;22.48;;;12.23;;
35312;SDS011;21425;50.454;30.466;2023-10-31T02:26:31;24.05;;;12.88;;
35312;SDS011;21425;50.454;30.466;2023-10-31T02:28:57;27.55;;;12.02;;
35312;SDS011;21425;50.454;30.466;2023-10-31T02:31:24;27.60;;;12.38;;
35312;SDS011;21425;50.454;30.466;2023-10-31T02:33:50;29.50;;;13.30;;
35312;SDS011;21425;50.454;30.466;2023-10-31T02:36:16;25.52;;;12.10;;
35312;SDS011;21425;50.454;30.466;2023-10-31T02:38:41;25.52;;;13.32;;
35312;SDS011;21425;50.454;30.466;2023-10-31T02:41:07;28.15;;;13.20;;
35312;SDS011;21425;50.454;30.466;2023-10-31T02:43:33;32.28;;;14.00;;
35312;SDS011;21425;50.454;30.466;2023-10-31T02:45:59;27.17;;;13.10;;
35312;SDS011;21425;50.454;30.466;2023-10-31T02:48:25;29.27;;;12.48;;
35312;SDS011;21425;50.454;30.466;2023-10-31T02:50:51;25.10;;;12.40;;
35312;SDS011;21425;50.454;30.466;2023-10-31T02:53:20;24.63;;;12.05;;
35312;SDS011;21425;50.454;30.466;2023-10-31T02:55:46;29.15;;;12.35;;
35312;SDS011;21425;50.454;30.466;2023-10-31T02:58:12;26.10;;;11.77;;
35312;SDS011;21425;50.454;30.466;2023-10-31T03:00:37;27.35;;;12.20;;
35312;SDS011;21425;50.454;30.466;2023-10-31T03:03:03;29.20;;;13.18;;
35312;SDS011;21425;50.454;30.466;2023-10-31T03:05:29;25.52;;;13.20;;
35312;SDS011;21425;50.454;30.466;2023-10-31T03:07:55;27.20;;;12.50;;
35312;SDS011;21425;50.454;30.466;2023-10-31T03:10:21;29.52;;;13.43;;
35312;SDS011;21425;50.454;30.466;2023-10-31T03:12:47;31.83;;;12.07;;
35312;SDS011;21425;50.454;30.466;2023-10-31T03:15:13;26.80;;;12.27;;
35312;SDS011;21425;50.454;30.466;2023-10-31T03:17:39;27.15;;;12.35;;
35312;SDS011;21425;50.454;30.466;2023-10-31T03:20:04;27.08;;;11.70;;
35312;SDS011;21425;50.454;30.466;2023-10-31T03:22:30;25.75;;;12.57;;
35312;SDS011;21425;50.454;30.466;2023-10-31T03:24:56;32.65;;;13.98;;
35312;SDS011;21425;50.454;30.466;2023-10-31T03:27:22;28.05;;;13.35;;
35312;SDS011;21425;50.454;30.466;2023-10-31T03:29:47;27.25;;;12.65;;
35312;SDS011;21425;50.454;30.466;2023-10-31T03:32:14;31.05;;;12.93;;
35312;SDS011;21425;50.454;30.466;2023-10-31T03:34:40;32.58;;;13.10;;
35312;SDS011;21425;50.454;30.466;2023-10-31T03:37:06;34.15;;;13.15;;
35312;SDS011;21425;50.454;30.466;2023-10-31T03:39:33;30.88;;;13.60;;
35312;SDS011;21425;50.454;30.466;2023-10-31T03:41:59;23.13;;;11.93;;
35312;SDS011;21425;50.454;30.466;2023-10-31T03:44:25;30.83;;;12.60;;
35312;SDS011;21425;50.454;30.466;2023-10-31T03:46:50;31.40;;;12.45;;
35312;SDS011;21425;50.454;30.466;2023-10-31T03:49:16;33.10;;;13.35;;
35312;SDS011;21425;50.454;30.466;2023-10-31T03:51:42;30.73;;;13.00;;
35312;SDS011;21425;50.454;30.466;2023-10-31T03:54:08;27.13;;;13.27;;
35312;SDS011;21425;50.454;30.466;2023-10-31T03:56:41;29.33;;;13.13;;
35312;SDS011;21425;50.454;30.466;2023-10-31T03:59:08;29.58;;;12.20;;
35312;SDS011;21425;50.454;30.466;2023-10-31T04:01:33;23.67;;;11.65;;
35312;SDS011;21425;50.454;30.466;2023-10-31T04:03:59;38.63;;;12.85;;
35312;SDS011;21425;50.454;30.466;2023-10-31T04:06:25;32.08;;;12.77;;
35312;SDS011;21425;50.454;30.466;2023-10-31T04:08:51;24.30;;;12.75;;
35312;SDS011;21425;50.454;30.466;2023-10-31T04:11:17;30.73;;;14.13;;
35312;SDS011;21425;50.454;30.466;2023-10-31T04:13:43;30.27;;;13.32;;
35312;SDS011;21425;50.454;30.466;2023-10-31T04:16:09;29.27;;;13.48;;
35312;SDS011;21425;50.454;30.466;2023-10-31T04:18:35;28.83;;;13.48;;
35312;SDS011;21425;50.454;30.466;2023-10-31T04:21:02;38.35;;;15.70;;
35312;SDS011;21425;50.454;30.466;2023-10-31T04:23:28;32.10;;;14.82;;
35312;SDS011;21425;50.454;30.466;2023-10-31T04:25:53;32.05;;;14.40;;
35312;SDS011;21425;50.454;30.466;2023-10-31T04:28:19;33.38;;;14.07;;
35312;SDS011;21425;50.454;30.466;2023-10-31T04:30:45;42.83;;;15.05;;
35312;SDS011;21425;50.454;30.466;2023-10-31T04:33:11;31.15;;;14.95;;
35312;SDS011;21425;50.454;30.466;2023-10-31T04:35:36;32.10;;;13.95;;
35312;SDS011;21425;50.454;30.466;2023-10-31T04:38:02;38.33;;;15.82;;
35312;SDS011;21425;50.454;30.466;2023-10-31T04:40:28;35.30;;;14.98;;
35312;SDS011;21425;50.454;30.466;2023-10-31T04:42:54;33.67;;;14.48;;
35312;SDS011;21425;50.454;30.466;2023-10-31T04:45:20;35.67;;;14.65;;
35312;SDS011;21425;50.454;30.466;2023-10-31T04:47:47;35.65;;;13.93;;
35312;SDS011;21425;50.454;30.466;2023-10-31T04:50:12;36.25;;;13.43;;
35312;SDS011;21425;50.454;30.466;2023-10-31T04:52:38;27.88;;;13.38;;
35312;SDS011;21425;50.454;30.466;2023-10-31T04:55:04;35.33;;;14.90;;
35312;SDS011;21425;50.454;30.466;2023-10-31T04:57:30;33.53;;;14.23;;
35312;SDS011;21425;50.454;30.466;2023-10-31T04:59:56;29.98;;;13.98;;
35312;SDS011;21425;50.454;30.466;2023-10-31T05:02:23;34.15;;;14.05;;
35312;SDS011;21425;50.454;30.466;2023-10-31T05:04:49;29.92;;;13.25;;
35312;SDS011;21425;50.454;30.466;2023-10-31T05:07:18;26.92;;;13.57;;
35312;SDS011;21425;50.454;30.466;2023-10-31T05:09:44;30.17;;;12.68;;
35312;SDS011;21425;50.454;30.466;2023-10-31T05:12:10;27.80;;;11.63;;
35312;SDS011;21425;50.454;30.466;2023-10-31T05:14:36;25.63;;;12.15;;
35312;SDS011;21425;50.454;30.466;2023-10-31T05:17:02;25.85;;;11.18;;
35312;SDS011;21425;50.454;30.466;2023-10-31T05:19:28;32.95;;;12.23;;
35312;SDS011;21425;50.454;30.466;2023-10-31T05:21:53;31.52;;;13.60;;
35312;SDS011;21425;50.454;30.466;2023-10-31T05:24:19;28.90;;;13.25;;
35312;SDS011;21425;50.454;30.466;2023-10-31T05:26:45;23.88;;;11.48;;
35312;SDS011;21425;50.454;30.466;2023-10-31T05:29:11;29.30;;;12.73;;
35312;SDS011;21425;50.454;30.466;2023-10-31T05:31:37;33.63;;;13.65;;
35312;SDS011;21425;50.454;30.466;2023-10-31T05:34:03;25.30;;;12.80;;
35312;SDS011;21425;50.454;30.466;2023-10-31T05:36:29;29.98;;;12.88;;
35312;SDS011;21425;50.454;30.466;2023-10-31T05:38:56;26.17;;;11.82;;
35312;SDS011;21425;50.454;30.466;2023-10-31T05:41:21;28.17;;;12.35;;
35312;SDS011;21425;50.454;30.466;2023-10-31T05:43:47;32.30;;;13.02;;
35312;SDS011;21425;50.454;30.466;2023-10-31T05:46:14;28.15;;;12.27;;
35312;SDS011;21425;50.454;30.466;2023-10-31T05:48:48;29.58;;;11.65;;
35312;SDS011;21425;50.454;30.466;2023-10-31T05:51:18;23.05;;;9.98;;
35312;SDS011;21425;50.454;30.466;2023-10-31T05:53:45;28.55;;;11.20;;
35312;SDS011;21425;50.454;30.466;2023-10-31T05:56:13;25.35;;;11.93;;
35312;SDS011;21425;50.454;30.466;2023-10-31T05:58:40;28.13;;;11.43;;
35312;SDS011;21425;50.454;30.466;2023-10-31T06:01:06;34.88;;;12.80;;
35312;SDS011;21425;50.454;30.466;2023-10-31T06:03:33;32.45;;;13.05;;
35312;SDS011;21425;50.454;30.466;2023-10-31T06:05:59;33.05;;;13.43;;
35312;SDS011;21425;50.454;30.466;2023-10-31T06:08:25;27.80;;;13.10;;
35312;SDS011;21425;50.454;30.466;2023-10-31T06:10:55;30.92;;;13.23;;
35312;SDS011;21425;50.454;30.466;2023-10-31T06:13:21;33.47;;;15.18;;
35312;SDS011;21425;50.454;30.466;2023-10-31T06:15:47;30.77;;;13.68;;
35312;SDS011;21425;50.454;30.466;2023-10-31T06:18:13;29.73;;;14.32;;
35312;SDS011;21425;50.454;30.466;2023-10-31T06:20:39;31.52;;;14.20;;
35312;SDS011;21425;50.454;30.466;2023-10-31T06:23:05;32.45;;;14.50;;
35312;SDS011;21425;50.454;30.466;2023-10-31T06:25:31;29.95;;;13.05;;
35312;SDS011;21425;50.454;30.466;2023-10-31T06:27:56;32.88;;;13.23;;
35312;SDS011;21425;50.454;30.466;2023-10-31T06:30:22;27.20;;;12.93;;
35312;SDS011;21425;50.454;30.466;2023-10-31T06:32:49;31.42;;;13.77;;
35312;SDS011;21425;50.454;30.466;2023-10-31T06:35:15;29.15;;;13.57;;
35312;SDS011;21425;50.454;30.466;2023-10-31T06:37:41;27.42;;;13.10;;
35312;SDS011;21425;50.454;30.466;2023-10-31T06:40:07;33.63;;;13.75;;
35312;SDS011;21425;50.454;30.466;2023-10-31T06:42:33;28.67;;;13.88;;
35312;SDS011;21425;50.454;30.466;2023-10-31T06:45:00;30.05;;;13.82;;
35312;SDS011;21425;50.454;30.466;2023-10-31T06:47:26;27.70;;;13.45;;
35312;SDS011;21425;50.454;30.466;2023-10-31T06:49:51;31.05;;;14.02;;
35312;SDS011;21425;50.454;30.466;2023-10-31T06:52:17;31.77;;;13.05;;
35312;SDS011;21425;50.454;30.466;2023-10-31T06:54:43;35.65;;;13.50;;
35312;SDS011;21425;50.454;30.466;2023-10-31T06:57:09;33.78;;;14.60;;
35312;SDS011;21425;50.454;30.466;2023-10-31T06:59:35;34.33;;;14.30;;
35312;SDS011;21425;50.454;30.466;2023-10-31T07:02:01;36.28;;;13.75;;
35312;SDS011;21425;50.454;30.466;2023-10-31T07:04:27;30.50;;;14.45;;
35312;SDS011;21425;50.454;30.466;2023-10-31T07:06:54;35.78;;;14.40;;
35312;SDS011;21425;50.454;30.466;2023-10-31T07:09:22;31.08;;;14.15;;
35312;SDS011;21425;50.454;30.466;2023-10-31T07:11:48;28.90;;;13.90;;
35312;SDS011;21425;50.454;30.466;2023-10-31T07:14:14;28.73;;;12.35;;
35312;SDS011;21425;50.454;30.466;2023-10-31T07:16:40;28.00;;;12.15;;
35312;SDS011;21425;50.454;30.466;2023-10-31T07:19:09;24.98;;;12.10;;
35312;SDS011;21425;50.454;30.466;2023-10-31T07:21:34;23.77;;;11.73;;
35312;SDS011;21425;50.454;30.466;2023-10-31T07:24:00;26.55;;;10.55;;
35312;SDS011;21425;50.454;30.466;2023-10-31T07:26:26;26.80;;;10.85;;
35312;SDS011;21425;50.454;30.466;2023-10-31T07:28:52;25.23;;;10.98;;
35312;SDS011;21425;50.454;30.466;2023-10-31T07:31:19;26.15;;;10.63;;
35312;SDS011;21425;50.454;30.466;2023-10-31T07:33:45;24.00;;;9.18;;
35312;SDS011;21425;50.454;30.466;2023-10-31T07:36:11;20.30;;;9.68;;
35312;SDS011;21425;50.454;30.466;2023-10-31T07:38:36;18.50;;;8.90;;
35312;SDS011;21425;50.454;30.466;2023-10-31T07:41:03;22.27;;;9.30;;
35312;SDS011;21425;50.454;30.466;2023-10-31T07:43:28;18.25;;;8.32;;
35312;SDS011;21425;50.454;30.466;2023-10-31T07:45:54;20.17;;;9.23;;
35312;SDS011;21425;50.454;30.466;2023-10-31T07:48:20;23.17;;;9.93;;
35312;SDS011;21425;50.454;30.466;2023-10-31T07:50:46;19.42;;;8.40;;
35312;SDS011;21425;50.454;30.466;2023-10-31T07:53:12;16.75;;;8.48;;
35312;SDS011;21425;50.454;30.466;2023-10-31T07:55:38;20.30;;;8.82;;
35312;SDS011;21425;50.454;30.466;2023-10-31T07:58:03;23.13;;;8.85;;
35312;SDS011;21425;50.454;30.466;2023-10-31T08:00:29;17.65;;;7.75;;
35312;SDS011;21425;50.454;30.466;2023-10-31T08:02:55;15.63;;;7.72;;
35312;SDS011;21425;50.454;30.466;2023-10-31T08:05:22;21.10;;;8.52;;
35312;SDS011;21425;50.454;30.466;2023-10-31T08:07:48;25.52;;;9.43;;
35312;SDS011;21425;50.454;30.466;2023-10-31T08:10:14;23.08;;;8.50;;
35312;SDS011;21425;50.454;30.466;2023-10-31T08:12:39;19.73;;;8.52;;
35312;SDS011;21425;50.454;30.466;2023-10-31T08:15:05;17.55;;;7.80;;
35312;SDS011;21425;50.454;30.466;2023-10-31T08:17:31;16.45;;;7.47;;
35312;SDS011;21425;50.454;30.466;2023-10-31T08:19:57;17.80;;;8.32;;
35312;SDS011;21425;50.454;30.466;2023-10-31T08:22:23;19.80;;;8.05;;
35312;SDS011;21425;50.454;30.466;2023-10-31T08:24:49;19.50;;;7.53;;
35312;SDS011;21425;50.454;30.466;2023-10-31T08:27:15;15.32;;;7.13;;
35312;SDS011;21425;50.454;30.466;2023-10-31T08:29:42;18.75;;;7.68;;
35312;SDS011;21425;50.454;30.466;2023-10-31T08:32:07;18.58;;;7.13;;
35312;SDS011;21425;50.454;30.466;2023-10-31T08:34:33;20.35;;;7.15;;
35312;SDS011;21425;50.454;30.466;2023-10-31T08:36:59;16.45;;;7.10;;
35312;SDS011;21425;50.454;30.466;2023-10-31T08:39:25;19.80;;;8.25;;
35312;SDS011;21425;50.454;30.466;2023-10-31T08:41:51;19.67;;;8.00;;
35312;SDS011;21425;50.454;30.466;2023-10-31T08:44:17;17.60;;;7.65;;
35312;SDS011;21425;50.454;30.466;2023-10-31T08:46:43;13.57;;;6.97;;
35312;SDS011;21425;50.454;30.466;2023-10-31T08:49:09;19.77;;;6.55;;
35312;SDS011;21425;50.454;30.466;2023-10-31T08:51:35;16.02;;;6.93;;
35312;SDS011;21425;50.454;30.466;2023-10-31T08:54:01;15.88;;;6.57;;
35312;SDS011;21425;50.454;30.466;2023-10-31T08:56:26;18.48;;;7.07;;
35312;SDS011;21425;50.454;30.466;2023-10-31T08:58:52;19.10;;;6.75;;
35312;SDS011;21425;50.454;30.466;2023-10-31T09:01:18;19.67;;;6.38;;
35312;SDS011;21425;50.454;30.466;2023-10-31T09:03:44;19.70;;;6.40;;
35312;SDS011;21425;50.454;30.466;2023-10-31T09:06:10;18.35;;;6.80;;
35312;SDS011;21425;50.454;30.466;2023-10-31T09:08:37;15.23;;;6.85;;
35312;SDS011;21425;50.454;30.466;2023-10-31T09:11:04;19.60;;;7.95;;
35312;SDS011;21425;50.454;30.466;2023-10-31T09:13:30;17.60;;;6.82;;
35312;SDS011;21425;50.454;30.466;2023-10-31T09:15:57;19.00;;;7.03;;
35312;SDS011;21425;50.454;30.466;2023-10-31T09:18:26;17.58;;;6.40;;
35312;SDS011;21425;50.454;30.466;2023-10-31T09:20:52;16.85;;;5.47;;
35312;SDS011;21425;50.454;30.466;2023-10-31T09:23:18;14.73;;;5.55;;
35312;SDS011;21425;50.454;30.466;2023-10-31T09:25:44;13.90;;;5.45;;
35312;SDS011;21425;50.454;30.466;2023-10-31T09:28:10;14.35;;;5.38;;
35312;SDS011;21425;50.454;30.466;2023-10-31T09:30:36;15.57;;;5.22;;
35312;SDS011;21425;50.454;30.466;2023-10-31T09:33:02;12.55;;;5.32;;
35312;SDS011;21425;50.454;30.466;2023-10-31T09:35:28;13.70;;;5.10;;
35312;SDS011;21425;50.454;30.466;2023-10-31T09:37:54;10.65;;;5.03;;
35312;SDS011;21425;50.454;30.466;2023-10-31T09:40:20;17.67;;;5.63;;
35312;SDS011;21425;50.454;30.466;2023-10-31T09:42:47;15.90;;;5.65;;
35312;SDS011;21425;50.454;30.466;2023-10-31T09:45:14;15.40;;;5.25;;
35312;SDS011;21425;50.454;30.466;2023-10-31T09:47:40;9.35;;;4.13;;
35312;SDS011;21425;50.454;30.466;2023-10-31T09:50:07;15.82;;;4.72;;
35312;SDS011;21425;50.454;30.466;2023-10-31T09:52:35;14.45;;;5.35;;
35312;SDS011;21425;50.454;30.466;2023-10-31T09:55:01;12.20;;;5.03;;
35312;SDS011;21425;50.454;30.466;2023-10-31T09:57:28;10.88;;;5.00;;
35312;SDS011;21425;50.454;30.466;2023-10-31T09:59:54;13.55;;;4.55;;
35312;SDS011;21425;50.454;30.466;2023-10-31T10:02:19;13.15;;;4.95;;
35312;SDS011;21425;50.454;30.466;2023-10-31T10:04:45;16.33;;;4.90;;
35312;SDS011;21425;50.454;30.466;2023-10-31T10:07:15;11.15;;;4.43;;
35312;SDS011;21425;50.454;30.466;2023-10-31T10:09:42;9.90;;;4.70;;
35312;SDS011;21425;50.454;30.466;2023-10-31T10:12:08;11.05;;;4.22;;
35312;SDS011;21425;50.454;30.466;2023-10-31T10:14:37;13.20;;;5.05;;
35312;SDS011;21425;50.454;30.466;2023-10-31T10:17:13;10.55;;;4.88;;
35312;SDS011;21425;50.454;30.466;2023-10-31T10:19:40;9.98;;;4.50;;
35312;SDS011;21425;50.454;30.466;2023-10-31T10:22:06;13.80;;;5.07;;
35312;SDS011;21425;50.454;30.466;2023-10-31T10:24:32;10.65;;;4.50;;
35312;SDS011;21425;50.454;30.466;2023-10-31T10:26:57;13.23;;;5.07;;
35312;SDS011;21425;50.454;30.466;2023-10-31T10:29:23;18.83;;;5.30;;
35312;SDS011;21425;50.454;30.466;2023-10-31T10:31:51;11.90;;;5.95;;
35312;SDS011;21425;50.454;30.466;2023-10-31T10:34:18;10.27;;;5.97;;
35312;SDS011;21425;50.454;30.466;2023-10-31T10:36:46;12.40;;;5.72;;
35312;SDS011;21425;50.454;30.466;2023-10-31T10:39:20;18.27;;;6.20;;
35312;SDS011;21425;50.454;30.466;2023-10-31T10:41:54;12.07;;;5.38;;
35312;SDS011;21425;50.454;30.466;2023-10-31T10:44:31;10.73;;;5.38;;
35312;SDS011;21425;50.454;30.466;2023-10-31T10:46:57;11.82;;;6.05;;
35312;SDS011;21425;50.454;30.466;2023-10-31T10:49:24;14.45;;;5.50;;
35312;SDS011;21425;50.454;30.466;2023-10-31T10:51:52;9.00;;;4.43;;
35312;SDS011;21425;50.454;30.466;2023-10-31T10:54:24;11.07;;;4.70;;
35312;SDS011;21425;50.454;30.466;2023-10-31T10:57:03;13.75;;;4.68;;
35312;SDS011;21425;50.454;30.466;2023-10-31T10:59:43;10.20;;;4.43;;
35312;SDS011;21425;50.454;30.466;2023-10-31T11:02:16;9.50;;;4.20;;
35312;SDS011;21425;50.454;30.466;2023-10-31T11:04:43;11.02;;;4.30;;
35312;SDS011;21425;50.454;30.466;2023-10-31T11:07:09;8.98;;;3.90;;
35312;SDS011;21425;50.454;30.466;2023-10-31T11:09:35;10.82;;;4.03;;
35312;SDS011;21425;50.454;30.466;2023-10-31T11:12:03;7.13;;;3.75;;
35312;SDS011;21425;50.454;30.466;2023-10-31T11:14:30;12.60;;;4.38;;
35312;SDS011;21425;50.454;30.466;2023-10-31T11:16:58;12.93;;;4.68;;
35312;SDS011;21425;50.454;30.466;2023-10-31T11:19:26;12.70;;;4.28;;
35312;SDS011;21425;50.454;30.466;2023-10-31T11:21:59;9.93;;;4.35;;
35312;SDS011;21425;50.454;30.466;2023-10-31T11:24:26;8.70;;;3.70;;
35312;SDS011;21425;50.454;30.466;2023-10-31T11:26:54;10.40;;;4.50;;
35312;SDS011;21425;50.454;30.466;2023-10-31T11:29:23;10.85;;;4.30;;
35312;SDS011;21425;50.454;30.466;2023-10-31T11:31:51;13.02;;;4.00;;
35312;SDS011;21425;50.454;30.466;2023-10-31T11:34:17;13.27;;;4.30;;
35312;SDS011;21425;50.454;30.466;2023-10-31T11:36:46;11.00;;;4.25;;
35312;SDS011;21425;50.454;30.466;2023-10-31T11:41:38;13.85;;;5.82;;
35312;SDS011;21425;50.454;30.466;2023-10-31T11:44:04;13.07;;;4.95;;
35312;SDS011;21425;50.454;30.466;2023-10-31T11:46:30;7.45;;;4.60;;
35312;SDS011;21425;50.454;30.466;2023-10-31T11:48:56;7.13;;;3.63;;
35312;SDS011;21425;50.454;30.466;2023-10-31T11:51:24;13.80;;;4.13;;
35312;SDS011;21425;50.454;30.466;2023-10-31T11:53:51;11.52;;;4.28;;
35312;SDS011;21425;50.454;30.466;2023-10-31T11:56:17;6.03;;;3.50;;
35312;SDS011;21425;50.454;30.466;2023-10-31T11:58:43;6.97;;;3.78;;
35312;SDS011;21425;50.454;30.466;2023-10-31T12:01:09;6.38;;;3.60;;
35312;SDS011;21425;50.454;30.466;2023-10-31T12:03:40;9.02;;;3.45;;
35312;SDS011;21425;50.454;30.466;2023-10-31T12:06:06;8.82;;;3.47;;
35312;SDS011;21425;50.454;30.466;2023-10-31T12:08:37;6.32;;;3.17;;
35312;SDS011;21425;50.454;30.466;2023-10-31T12:13:37;8.88;;;3.10;;
35312;SDS011;21425;50.454;30.466;2023-10-31T12:16:07;5.72;;;3.17;;
35312;SDS011;21425;50.454;30.466;2023-10-31T12:18:34;14.13;;;3.45;;
35312;SDS011;21425;50.454;30.466;2023-10-31T12:21:00;5.15;;;3.00;;
35312;SDS011;21425;50.454;30.466;2023-10-31T12:23:26;11.85;;;3.47;;
35312;SDS011;21425;50.454;30.466;2023-10-31T12:25:52;8.70;;;2.70;;
35312;SDS011;21425;50.454;30.466;2023-10-31T12:28:22;5.50;;;2.78;;
35312;SDS011;21425;50.454;30.466;2023-10-31T12:30:49;7.72;;;3.33;;
35312;SDS011;21425;50.454;30.466;2023-10-31T12:33:16;9.77;;;3.15;;
35312;SDS011;21425;50.454;30.466;2023-10-31T12:35:42;6.38;;;2.72;;
35312;SDS011;21425;50.454;30.466;2023-10-31T12:38:12;14.60;;;3.00;;
35312;SDS011;21425;50.454;30.466;2023-10-31T12:40:43;6.30;;;2.83;;
35312;SDS011;21425;50.454;30.466;2023-10-31T12:43:09;8.23;;;3.03;;
35312;SDS011;21425;50.454;30.466;2023-10-31T12:45:35;7.10;;;3.15;;
35312;SDS011;21425;50.454;30.466;2023-10-31T12:48:07;8.20;;;3.13;;
35312;SDS011;21425;50.454;30.466;2023-10-31T12:50:34;9.00;;;3.45;;
35312;SDS011;21425;50.454;30.466;2023-10-31T12:53:07;9.07;;;3.30;;
35312;SDS011;21425;50.454;30.466;2023-10-31T12:55:37;7.40;;;3.88;;
35312;SDS011;21425;50.454;30.466;2023-10-31T12:58:03;12.55;;;3.78;;
35312;SDS011;21425;50.454;30.466;2023-10-31T13:00:30;9.60;;;4.30;;
35312;SDS011;21425;50.454;30.466;2023-10-31T13:05:30;6.85;;;3.47;;
35312;SDS011;21425;50.454;30.466;2023-10-31T13:07:56;8.80;;;3.13;;
35312;SDS011;21425;50.454;30.466;2023-10-31T13:10:29;7.50;;;3.70;;
35312;SDS011;21425;50.454;30.466;2023-10-31T13:12:56;12.38;;;3.25;;
35312;SDS011;21425;50.454;30.466;2023-10-31T13:15:22;7.60;;;3.55;;
35312;SDS011;21425;50.454;30.466;2023-10-31T13:17:49;12.82;;;4.63;;
35312;SDS011;21425;50.454;30.466;2023-10-31T13:20:16;10.68;;;4.20;;
35312;SDS011;21425;50.454;30.466;2023-10-31T13:22:42;8.50;;;3.47;;
35312;SDS011;21425;50.454;30.466;2023-10-31T13:25:09;9.77;;;3.63;;
35312;SDS011;21425;50.454;30.466;2023-10-31T13:27:45;9.73;;;3.30;;
35312;SDS011;21425;50.454;30.466;2023-10-31T13:30:16;9.93;;;4.72;;
35312;SDS011;21425;50.454;30.466;2023-10-31T13:32:42;10.07;;;3.85;;
35312;SDS011;21425;50.454;30.466;2023-10-31T13:35:08;11.02;;;4.20;;
35312;SDS011;21425;50.454;30.466;2023-10-31T13:37:35;6.50;;;3.45;;
35312;SDS011;21425;50.454;30.466;2023-10-31T13:40:02;8.70;;;3.72;;
35312;SDS011;21425;50.454;30.466;2023-10-31T13:42:28;7.97;;;3.70;;
35312;SDS011;21425;50.454;30.466;2023-10-31T13:44:54;7.15;;;3.13;;
35312;SDS011;21425;50.454;30.466;2023-10-31T13:47:20;9.65;;;3.95;;
35312;SDS011;21425;50.454;30.466;2023-10-31T13:49:46;10.65;;;3.70;;
35312;SDS011;21425;50.454;30.466;2023-10-31T13:52:12;8.07;;;3.80;;
35312;SDS011;21425;50.454;30.466;2023-10-31T13:54:38;10.20;;;4.00;;
35312;SDS011;21425;50.454;30.466;2023-10-31T13:57:07;13.63;;;3.80;;
35312;SDS011;21425;50.454;30.466;2023-10-31T13:59:32;9.05;;;3.47;;
35312;SDS011;21425;50.454;30.466;2023-10-31T14:01:59;9.02;;;4.30;;
35312;SDS011;21425;50.454;30.466;2023-10-31T14:04:25;10.73;;;3.72;;
35312;SDS011;21425;50.454;30.466;2023-10-31T14:06:51;11.65;;;4.07;;
35312;SDS011;21425;50.454;30.466;2023-10-31T14:09:17;11.90;;;4.13;;
35312;SDS011;21425;50.454;30.466;2023-10-31T14:11:43;10.65;;;4.40;;
35312;SDS011;21425;50.454;30.466;2023-10-31T14:14:09;12.90;;;4.47;;
35312;SDS011;21425;50.454;30.466;2023-10-31T14:16:44;15.57;;;4.80;;
35312;SDS011;21425;50.454;30.466;2023-10-31T14:19:12;8.35;;;3.97;;
35312;SDS011;21425;50.454;30.466;2023-10-31T14:21:38;8.95;;;4.18;;